To NAV CANADA Home Page Login to a new session Search on AWWS site Feedback and Comments Disclaimer Vers la page française équivalente Tips FAQ What's new on the site To the Forecasts and Observations / NOTAM section To "File a Flight Plan" website Publications and other links Update of the User's profile FIC Telephone Numbers My Weather Data Folder Route Weather Data Regional Weather Data Local Weather Data To the Forecasts and Observations / NOTAM section
Request Generated 04/21/2015 at 14:36:41 UTC . Weather information available at that time is displayed.

METAR/TAF

KANGIRSUK/QC    

METAR CYAS 211400Z 02015G22KT 3/4SM -SN BR VV015 M10/M12 A2994 RMK SN8 VIS VRB 1/2-1 SUN DMLY VIS SLP152=
SPECI CYAS 211320Z 02015G22KT 3/4SM -SN BR VV015 RMK SN8 SUN DMLY VIS=
METAR CYAS 211300Z 02015G22KT 8SM -SN FEW005 BKN020 OVC080 M11/M13 A2995 RMK ST2SC3AS2 SLP157=
METAR CYAS 211200Z 02015G20KT 10SM -SN FEW005 BKN015 OVC080 M11/M13 A2998 RMK ST1ST4AS2 SLP167=

CYAS - No TAF is issued for this station

Your time UTC time
Weather data provided by Environment Canada and NAV CANADA